sensor_id;sensor_type;location;lat;lon;timestamp;temperature;humidity
20091;DHT22;10205;49.678;6.560;2023-12-20T00:02:17;10.30;77.20
20091;DHT22;10205;49.678;6.560;2023-12-20T00:04:44;10.30;77.30
20091;DHT22;10205;49.678;6.560;2023-12-20T00:07:11;10.30;77.30
20091;DHT22;10205;49.678;6.560;2023-12-20T00:09:38;10.30;77.20
20091;DHT22;10205;49.678;6.560;2023-12-20T00:12:07;10.30;77.20
20091;DHT22;10205;49.678;6.560;2023-12-20T00:14:34;10.30;77.20
20091;DHT22;10205;49.678;6.560;2023-12-20T00:17:02;10.30;77.20
20091;DHT22;10205;49.678;6.560;2023-12-20T00:19:29;10.30;77.20
20091;DHT22;10205;49.678;6.560;2023-12-20T00:21:56;10.30;77.10
20091;DHT22;10205;49.678;6.560;2023-12-20T00:24:25;10.30;77.10
20091;DHT22;10205;49.678;6.560;2023-12-20T00:26:52;10.30;77.00
20091;DHT22;10205;49.678;6.560;2023-12-20T00:29:20;10.40;77.10
20091;DHT22;10205;49.678;6.560;2023-12-20T00:31:47;10.30;77.00
20091;DHT22;10205;49.678;6.560;2023-12-20T00:34:14;10.30;77.00
20091;DHT22;10205;49.678;6.560;2023-12-20T00:36:41;10.30;77.00
20091;DHT22;10205;49.678;6.560;2023-12-20T00:39:08;10.30;77.10
20091;DHT22;10205;49.678;6.560;2023-12-20T00:41:37;10.30;77.10
20091;DHT22;10205;49.678;6.560;2023-12-20T00:44:04;10.40;77.20
20091;DHT22;10205;49.678;6.560;2023-12-20T00:46:32;10.40;77.10
20091;DHT22;10205;49.678;6.560;2023-12-20T00:49:00;10.30;77.10
20091;DHT22;10205;49.678;6.560;2023-12-20T00:51:27;10.40;77.20
20091;DHT22;10205;49.678;6.560;2023-12-20T00:53:54;10.40;77.20
20091;DHT22;10205;49.678;6.560;2023-12-20T00:56:21;10.30;77.10
20091;DHT22;10205;49.678;6.560;2023-12-20T00:58:48;10.40;77.20
20091;DHT22;10205;49.678;6.560;2023-12-20T01:01:15;10.40;77.20
20091;DHT22;10205;49.678;6.560;2023-12-20T01:03:44;10.40;77.20
20091;DHT22;10205;49.678;6.560;2023-12-20T01:06:11;10.30;77.20
20091;DHT22;10205;49.678;6.560;2023-12-20T01:08:38;10.40;77.20
20091;DHT22;10205;49.678;6.560;2023-12-20T01:11:05;10.40;77.20
20091;DHT22;10205;49.678;6.560;2023-12-20T01:13:32;10.40;78.00
20091;DHT22;10205;49.678;6.560;2023-12-20T01:15:59;10.40;77.20
20091;DHT22;10205;49.678;6.560;2023-12-20T01:18:26;10.40;77.20
20091;DHT22;10205;49.678;6.560;2023-12-20T01:20:54;10.40;77.20
20091;DHT22;10205;49.678;6.560;2023-12-20T01:23:22;10.40;77.20
20091;DHT22;10205;49.678;6.560;2023-12-20T01:25:49;10.40;77.30
20091;DHT22;10205;49.678;6.560;2023-12-20T01:28:16;10.30;78.00
20091;DHT22;10205;49.678;6.560;2023-12-20T01:30:43;10.40;77.30
20091;DHT22;10205;49.678;6.560;2023-12-20T01:33:10;10.30;77.20
20091;DHT22;10205;49.678;6.560;2023-12-20T01:35:37;10.30;77.30
20091;DHT22;10205;49.678;6.560;2023-12-20T01:38:05;10.40;77.20
20091;DHT22;10205;49.678;6.560;2023-12-20T01:40:32;10.30;77.20
20091;DHT22;10205;49.678;6.560;2023-12-20T01:43:00;10.30;77.20
20091;DHT22;10205;49.678;6.560;2023-12-20T01:45:28;10.30;77.30
20091;DHT22;10205;49.678;6.560;2023-12-20T01:47:55;10.30;77.20
20091;DHT22;10205;49.678;6.560;2023-12-20T01:50:24;10.30;77.30
20091;DHT22;10205;49.678;6.560;2023-12-20T01:52:52;10.30;77.30
20091;DHT22;10205;49.678;6.560;2023-12-20T01:55:25;10.30;77.30
20091;DHT22;10205;49.678;6.560;2023-12-20T01:57:54;10.30;77.50
20091;DHT22;10205;49.678;6.560;2023-12-20T02:00:22;10.30;77.30
20091;DHT22;10205;49.678;6.560;2023-12-20T02:02:53;10.30;77.20
20091;DHT22;10205;49.678;6.560;2023-12-20T02:05:21;10.30;77.20
20091;DHT22;10205;49.678;6.560;2023-12-20T02:07:48;10.30;77.20
20091;DHT22;10205;49.678;6.560;2023-12-20T02:10:16;10.30;77.20
20091;DHT22;10205;49.678;6.560;2023-12-20T02:12:44;10.30;77.20
20091;DHT22;10205;49.678;6.560;2023-12-20T02:15:11;10.30;77.30
20091;DHT22;10205;49.678;6.560;2023-12-20T02:17:39;10.30;77.30
20091;DHT22;10205;49.678;6.560;2023-12-20T02:20:07;10.30;77.30
20091;DHT22;10205;49.678;6.560;2023-12-20T02:22:36;10.30;77.30
20091;DHT22;10205;49.678;6.560;2023-12-20T02:25:04;10.30;77.30
20091;DHT22;10205;49.678;6.560;2023-12-20T02:27:31;10.30;77.30
20091;DHT22;10205;49.678;6.560;2023-12-20T02:29:58;10.30;77.30
20091;DHT22;10205;49.678;6.560;2023-12-20T02:32:25;10.30;77.30
20091;DHT22;10205;49.678;6.560;2023-12-20T02:34:52;10.30;77.20
20091;DHT22;10205;49.678;6.560;2023-12-20T02:37:20;10.30;77.20
20091;DHT22;10205;49.678;6.560;2023-12-20T02:39:48;10.30;77.20
20091;DHT22;10205;49.678;6.560;2023-12-20T02:42:15;10.30;77.20
20091;DHT22;10205;49.678;6.560;2023-12-20T02:44:42;10.30;77.20
20091;DHT22;10205;49.678;6.560;2023-12-20T02:47:10;10.30;77.30
20091;DHT22;10205;49.678;6.560;2023-12-20T02:49:37;10.30;77.20
20091;DHT22;10205;49.678;6.560;2023-12-20T02:52:04;10.30;77.20
20091;DHT22;10205;49.678;6.560;2023-12-20T02:54:31;10.30;77.20
20091;DHT22;10205;49.678;6.560;2023-12-20T02:57:00;10.30;77.20
20091;DHT22;10205;49.678;6.560;2023-12-20T02:59:27;10.30;77.20
20091;DHT22;10205;49.678;6.560;2023-12-20T03:01:54;10.30;77.20
20091;DHT22;10205;49.678;6.560;2023-12-20T03:04:21;10.30;77.20
20091;DHT22;10205;49.678;6.560;2023-12-20T03:06:48;10.30;77.20
20091;DHT22;10205;49.678;6.560;2023-12-20T03:09:15;10.30;77.20
20091;DHT22;10205;49.678;6.560;2023-12-20T03:11:42;10.40;77.20
20091;DHT22;10205;49.678;6.560;2023-12-20T03:14:11;10.40;77.20
20091;DHT22;10205;49.678;6.560;2023-12-20T03:16:38;10.30;77.20
20091;DHT22;10205;49.678;6.560;2023-12-20T03:19:05;10.30;77.10
20091;DHT22;10205;49.678;6.560;2023-12-20T03:21:32;10.30;77.20
20091;DHT22;10205;49.678;6.560;2023-12-20T03:23:59;10.30;77.10
20091;DHT22;10205;49.678;6.560;2023-12-20T03:26:26;10.30;77.10
20091;DHT22;10205;49.678;6.560;2023-12-20T03:28:54;10.30;77.00
20091;DHT22;10205;49.678;6.560;2023-12-20T03:31:22;10.30;77.00
20091;DHT22;10205;49.678;6.560;2023-12-20T03:33:49;10.30;76.90
20091;DHT22;10205;49.678;6.560;2023-12-20T03:36:19;10.30;77.60
20091;DHT22;10205;49.678;6.560;2023-12-20T03:38:46;10.30;76.80
20091;DHT22;10205;49.678;6.560;2023-12-20T03:41:13;10.30;76.60
20091;DHT22;10205;49.678;6.560;2023-12-20T03:43:41;10.30;76.40
20091;DHT22;10205;49.678;6.560;2023-12-20T03:46:08;10.30;76.30
20091;DHT22;10205;49.678;6.560;2023-12-20T03:48:37;10.20;76.30
20091;DHT22;10205;49.678;6.560;2023-12-20T03:51:04;10.20;76.30
20091;DHT22;10205;49.678;6.560;2023-12-20T03:53:32;10.20;76.20
20091;DHT22;10205;49.678;6.560;2023-12-20T03:55:59;10.20;76.20
20091;DHT22;10205;49.678;6.560;2023-12-20T03:58:25;10.20;76.20
20091;DHT22;10205;49.678;6.560;2023-12-20T04:00:52;10.10;76.10
20091;DHT22;10205;49.678;6.560;2023-12-20T04:03:19;10.10;76.20
20091;DHT22;10205;49.678;6.560;2023-12-20T04:05:48;10.10;76.30
20091;DHT22;10205;49.678;6.560;2023-12-20T04:08:15;10.10;76.30
20091;DHT22;10205;49.678;6.560;2023-12-20T04:10:42;10.10;76.30
20091;DHT22;10205;49.678;6.560;2023-12-20T04:13:09;10.10;76.40
20091;DHT22;10205;49.678;6.560;2023-12-20T04:15:36;10.10;76.40
20091;DHT22;10205;49.678;6.560;2023-12-20T04:18:04;10.10;76.30
20091;DHT22;10205;49.678;6.560;2023-12-20T04:20:31;10.10;76.20
20091;DHT22;10205;49.678;6.560;2023-12-20T04:23:00;10.10;76.20
20091;DHT22;10205;49.678;6.560;2023-12-20T04:25:27;10.10;76.30
20091;DHT22;10205;49.678;6.560;2023-12-20T04:27:54;10.10;76.20
20091;DHT22;10205;49.678;6.560;2023-12-20T04:30:21;10.10;76.20
20091;DHT22;10205;49.678;6.560;2023-12-20T04:32:50;10.10;76.20
20091;DHT22;10205;49.678;6.560;2023-12-20T04:35:17;10.00;76.20
20091;DHT22;10205;49.678;6.560;2023-12-20T04:37:44;10.00;76.20
20091;DHT22;10205;49.678;6.560;2023-12-20T04:40:12;10.00;76.20
20091;DHT22;10205;49.678;6.560;2023-12-20T04:42:39;10.00;76.20
20091;DHT22;10205;49.678;6.560;2023-12-20T04:45:07;10.00;76.20
20091;DHT22;10205;49.678;6.560;2023-12-20T04:47:35;10.00;76.30
20091;DHT22;10205;49.678;6.560;2023-12-20T04:50:03;10.00;76.20
20091;DHT22;10205;49.678;6.560;2023-12-20T04:52:30;9.90;76.20
20091;DHT22;10205;49.678;6.560;2023-12-20T04:54:58;9.90;76.20
20091;DHT22;10205;49.678;6.560;2023-12-20T04:57:27;9.90;77.00
20091;DHT22;10205;49.678;6.560;2023-12-20T04:59:54;9.90;76.20
20091;DHT22;10205;49.678;6.560;2023-12-20T05:02:22;9.90;77.00
20091;DHT22;10205;49.678;6.560;2023-12-20T05:04:50;9.80;76.10
20091;DHT22;10205;49.678;6.560;2023-12-20T05:07:18;9.80;76.10
20091;DHT22;10205;49.678;6.560;2023-12-20T05:09:46;9.80;76.60
20091;DHT22;10205;49.678;6.560;2023-12-20T05:12:14;9.80;76.20
20091;DHT22;10205;49.678;6.560;2023-12-20T05:14:42;9.80;76.20
20091;DHT22;10205;49.678;6.560;2023-12-20T05:17:10;9.70;76.10
20091;DHT22;10205;49.678;6.560;2023-12-20T05:19:37;9.70;77.00
20091;DHT22;10205;49.678;6.560;2023-12-20T05:22:04;9.70;76.20
20091;DHT22;10205;49.678;6.560;2023-12-20T05:24:31;9.70;76.20
20091;DHT22;10205;49.678;6.560;2023-12-20T05:26:58;9.60;76.20
20091;DHT22;10205;49.678;6.560;2023-12-20T05:29:25;9.60;76.20
20091;DHT22;10205;49.678;6.560;2023-12-20T05:31:55;9.60;76.30
20091;DHT22;10205;49.678;6.560;2023-12-20T05:34:25;9.60;76.30
20091;DHT22;10205;49.678;6.560;2023-12-20T05:36:58;9.50;76.30
20091;DHT22;10205;49.678;6.560;2023-12-20T05:39:25;9.50;76.30
20091;DHT22;10205;49.678;6.560;2023-12-20T05:41:53;9.50;76.30
20091;DHT22;10205;49.678;6.560;2023-12-20T05:44:22;9.50;76.40
20091;DHT22;10205;49.678;6.560;2023-12-20T05:46:49;9.50;76.50
20091;DHT22;10205;49.678;6.560;2023-12-20T05:49:18;9.50;76.40
20091;DHT22;10205;49.678;6.560;2023-12-20T05:51:45;9.50;76.50
20091;DHT22;10205;49.678;6.560;2023-12-20T05:54:12;9.40;76.50
20091;DHT22;10205;49.678;6.560;2023-12-20T05:56:40;9.40;76.50
20091;DHT22;10205;49.678;6.560;2023-12-20T05:59:08;9.40;76.50
20091;DHT22;10205;49.678;6.560;2023-12-20T06:01:35;9.40;76.50
20091;DHT22;10205;49.678;6.560;2023-12-20T06:04:02;9.40;76.50
20091;DHT22;10205;49.678;6.560;2023-12-20T06:06:31;9.40;76.60
20091;DHT22;10205;49.678;6.560;2023-12-20T06:08:58;9.40;76.60
20091;DHT22;10205;49.678;6.560;2023-12-20T06:11:26;9.30;76.60
20091;DHT22;10205;49.678;6.560;2023-12-20T06:13:53;9.30;76.60
20091;DHT22;10205;49.678;6.560;2023-12-20T06:16:20;9.30;76.70
20091;DHT22;10205;49.678;6.560;2023-12-20T06:18:47;9.30;76.70
20091;DHT22;10205;49.678;6.560;2023-12-20T06:21:14;9.30;76.60
20091;DHT22;10205;49.678;6.560;2023-12-20T06:23:43;9.30;76.60
20091;DHT22;10205;49.678;6.560;2023-12-20T06:26:11;9.30;76.70
20091;DHT22;10205;49.678;6.560;2023-12-20T06:28:38;9.30;76.70
20091;DHT22;10205;49.678;6.560;2023-12-20T06:31:05;9.30;76.70
20091;DHT22;10205;49.678;6.560;2023-12-20T06:33:33;9.30;76.80
20091;DHT22;10205;49.678;6.560;2023-12-20T06:36:00;9.30;76.70
20091;DHT22;10205;49.678;6.560;2023-12-20T06:38:27;9.30;76.70
20091;DHT22;10205;49.678;6.560;2023-12-20T06:40:58;9.30;76.70
20091;DHT22;10205;49.678;6.560;2023-12-20T06:43:25;9.30;76.70
20091;DHT22;10205;49.678;6.560;2023-12-20T06:45:52;9.30;76.70
20091;DHT22;10205;49.678;6.560;2023-12-20T06:48:19;9.30;76.80
20091;DHT22;10205;49.678;6.560;2023-12-20T06:50:46;9.30;76.70
20091;DHT22;10205;49.678;6.560;2023-12-20T06:53:13;9.30;76.70
20091;DHT22;10205;49.678;6.560;2023-12-20T06:55:41;9.30;76.70
20091;DHT22;10205;49.678;6.560;2023-12-20T06:58:09;9.30;76.70
20091;DHT22;10205;49.678;6.560;2023-12-20T07:00:36;9.30;76.70
20091;DHT22;10205;49.678;6.560;2023-12-20T07:03:04;9.30;76.70
20091;DHT22;10205;49.678;6.560;2023-12-20T07:05:31;9.30;76.70
20091;DHT22;10205;49.678;6.560;2023-12-20T07:07:58;9.30;76.70
20091;DHT22;10205;49.678;6.560;2023-12-20T07:10:25;9.30;76.70
20091;DHT22;10205;49.678;6.560;2023-12-20T07:12:53;9.30;76.70
20091;DHT22;10205;49.678;6.560;2023-12-20T07:15:22;9.30;76.70
20091;DHT22;10205;49.678;6.560;2023-12-20T07:17:50;9.30;76.70
20091;DHT22;10205;49.678;6.560;2023-12-20T07:20:17;9.30;76.70
20091;DHT22;10205;49.678;6.560;2023-12-20T07:22:44;9.30;76.70
20091;DHT22;10205;49.678;6.560;2023-12-20T07:25:12;9.30;77.50
20091;DHT22;10205;49.678;6.560;2023-12-20T07:27:39;9.30;76.70
20091;DHT22;10205;49.678;6.560;2023-12-20T07:30:07;9.30;76.70
20091;DHT22;10205;49.678;6.560;2023-12-20T07:32:36;9.30;76.70
20091;DHT22;10205;49.678;6.560;2023-12-20T07:35:04;9.20;76.60
20091;DHT22;10205;49.678;6.560;2023-12-20T07:37:32;9.30;76.70
20091;DHT22;10205;49.678;6.560;2023-12-20T07:39:59;9.20;76.70
20091;DHT22;10205;49.678;6.560;2023-12-20T07:42:26;9.30;76.80
20091;DHT22;10205;49.678;6.560;2023-12-20T07:44:53;9.20;76.60
20091;DHT22;10205;49.678;6.560;2023-12-20T07:47:21;9.30;76.70
20091;DHT22;10205;49.678;6.560;2023-12-20T07:49:52;9.30;76.70
20091;DHT22;10205;49.678;6.560;2023-12-20T07:52:19;9.30;76.70
20091;DHT22;10205;49.678;6.560;2023-12-20T07:54:48;9.30;77.60
20091;DHT22;10205;49.678;6.560;2023-12-20T07:57:16;9.30;76.70
20091;DHT22;10205;49.678;6.560;2023-12-20T07:59:43;9.30;76.70
20091;DHT22;10205;49.678;6.560;2023-12-20T08:02:10;9.30;76.70
20091;DHT22;10205;49.678;6.560;2023-12-20T08:04:38;9.30;76.70
20091;DHT22;10205;49.678;6.560;2023-12-20T08:07:06;9.30;76.70
20091;DHT22;10205;49.678;6.560;2023-12-20T08:09:34;9.30;76.70
20091;DHT22;10205;49.678;6.560;2023-12-20T08:12:02;9.30;76.70
20091;DHT22;10205;49.678;6.560;2023-12-20T08:14:30;9.30;76.60
20091;DHT22;10205;49.678;6.560;2023-12-20T08:16:57;9.30;76.60
20091;DHT22;10205;49.678;6.560;2023-12-20T08:19:25;9.30;76.70
20091;DHT22;10205;49.678;6.560;2023-12-20T08:21:52;9.30;76.60
20091;DHT22;10205;49.678;6.560;2023-12-20T08:24:20;9.30;76.60
20091;DHT22;10205;49.678;6.560;2023-12-20T08:26:48;9.30;76.70
20091;DHT22;10205;49.678;6.560;2023-12-20T08:29:15;9.30;76.60
20091;DHT22;10205;49.678;6.560;2023-12-20T08:31:42;9.30;76.60
20091;DHT22;10205;49.678;6.560;2023-12-20T08:34:09;9.30;76.70
20091;DHT22;10205;49.678;6.560;2023-12-20T08:36:37;9.30;76.60
20091;DHT22;10205;49.678;6.560;2023-12-20T08:39:05;9.30;77.40
20091;DHT22;10205;49.678;6.560;2023-12-20T08:41:35;9.30;76.70
20091;DHT22;10205;49.678;6.560;2023-12-20T08:44:02;9.30;76.70
20091;DHT22;10205;49.678;6.560;2023-12-20T08:46:29;9.30;76.70
20091;DHT22;10205;49.678;6.560;2023-12-20T08:48:57;9.30;76.70
20091;DHT22;10205;49.678;6.560;2023-12-20T08:51:24;9.30;76.80
20091;DHT22;10205;49.678;6.560;2023-12-20T08:53:51;9.30;76.80
20091;DHT22;10205;49.678;6.560;2023-12-20T08:56:19;9.30;76.80
20091;DHT22;10205;49.678;6.560;2023-12-20T08:58:47;9.30;76.80
20091;DHT22;10205;49.678;6.560;2023-12-20T09:01:15;9.30;76.80
20091;DHT22;10205;49.678;6.560;2023-12-20T09:03:42;9.30;76.80
20091;DHT22;10205;49.678;6.560;2023-12-20T09:06:09;9.30;76.80
20091;DHT22;10205;49.678;6.560;2023-12-20T09:08:37;9.30;76.80
20091;DHT22;10205;49.678;6.560;2023-12-20T09:11:04;9.30;76.80
20091;DHT22;10205;49.678;6.560;2023-12-20T09:13:31;9.40;76.90
20091;DHT22;10205;49.678;6.560;2023-12-20T09:16:00;9.30;76.80
20091;DHT22;10205;49.678;6.560;2023-12-20T09:18:28;9.30;76.80
20091;DHT22;10205;49.678;6.560;2023-12-20T09:20:55;9.40;76.80
20091;DHT22;10205;49.678;6.560;2023-12-20T09:23:22;9.40;76.80
20091;DHT22;10205;49.678;6.560;2023-12-20T09:25:49;9.40;76.70
20091;DHT22;10205;49.678;6.560;2023-12-20T09:28:16;9.40;76.70
20091;DHT22;10205;49.678;6.560;2023-12-20T09:30:43;9.40;76.70
20091;DHT22;10205;49.678;6.560;2023-12-20T09:33:13;9.40;76.70
20091;DHT22;10205;49.678;6.560;2023-12-20T09:35:41;9.40;76.70
20091;DHT22;10205;49.678;6.560;2023-12-20T09:38:09;9.40;76.60
20091;DHT22;10205;49.678;6.560;2023-12-20T09:40:41;9.40;76.70
20091;DHT22;10205;49.678;6.560;2023-12-20T09:43:10;9.40;76.70
20091;DHT22;10205;49.678;6.560;2023-12-20T09:45:40;9.40;76.80
20091;DHT22;10205;49.678;6.560;2023-12-20T09:48:10;9.40;76.70
20091;DHT22;10205;49.678;6.560;2023-12-20T09:50:40;9.40;76.70
20091;DHT22;10205;49.678;6.560;2023-12-20T09:53:09;9.50;76.80
20091;DHT22;10205;49.678;6.560;2023-12-20T09:55:38;9.40;76.70
20091;DHT22;10205;49.678;6.560;2023-12-20T09:58:10;9.50;76.80
20091;DHT22;10205;49.678;6.560;2023-12-20T10:00:37;9.50;76.80
20091;DHT22;10205;49.678;6.560;2023-12-20T10:03:06;9.50;76.80
20091;DHT22;10205;49.678;6.560;2023-12-20T10:05:35;9.50;76.80
20091;DHT22;10205;49.678;6.560;2023-12-20T10:08:02;9.50;76.80
20091;DHT22;10205;49.678;6.560;2023-12-20T10:10:30;9.50;76.80
20091;DHT22;10205;49.678;6.560;2023-12-20T10:13:04;9.50;76.80
20091;DHT22;10205;49.678;6.560;2023-12-20T10:15:33;9.50;76.80
20091;DHT22;10205;49.678;6.560;2023-12-20T10:18:00;9.60;76.70
20091;DHT22;10205;49.678;6.560;2023-12-20T10:20:28;9.60;76.70
20091;DHT22;10205;49.678;6.560;2023-12-20T10:22:57;9.60;76.70
20091;DHT22;10205;49.678;6.560;2023-12-20T10:25:26;9.60;76.70
20091;DHT22;10205;49.678;6.560;2023-12-20T10:28:10;9.60;76.70
20091;DHT22;10205;49.678;6.560;2023-12-20T10:30:40;9.60;76.70
20091;DHT22;10205;49.678;6.560;2023-12-20T10:33:08;9.60;76.70
20091;DHT22;10205;49.678;6.560;2023-12-20T10:35:37;9.60;76.70
20091;DHT22;10205;49.678;6.560;2023-12-20T10:38:10;9.70;76.70
20091;DHT22;10205;49.678;6.560;2023-12-20T10:40:39;9.70;76.60
20091;DHT22;10205;49.678;6.560;2023-12-20T10:43:07;9.70;76.60
20091;DHT22;10205;49.678;6.560;2023-12-20T10:45:35;9.70;76.60
20091;DHT22;10205;49.678;6.560;2023-12-20T10:48:04;9.70;76.60
20091;DHT22;10205;49.678;6.560;2023-12-20T10:50:31;9.70;76.50
20091;DHT22;10205;49.678;6.560;2023-12-20T10:52:59;9.70;76.50
20091;DHT22;10205;49.678;6.560;2023-12-20T10:55:28;9.70;76.40
20091;DHT22;10205;49.678;6.560;2023-12-20T10:58:00;9.70;76.30
20091;DHT22;10205;49.678;6.560;2023-12-20T11:00:33;9.70;76.10
20091;DHT22;10205;49.678;6.560;2023-12-20T11:03:06;9.70;76.20
20091;DHT22;10205;49.678;6.560;2023-12-20T11:05:41;9.80;76.20
20091;DHT22;10205;49.678;6.560;2023-12-20T11:08:19;9.70;76.10
20091;DHT22;10205;49.678;6.560;2023-12-20T11:10:58;9.80;76.10
20091;DHT22;10205;49.678;6.560;2023-12-20T11:13:37;9.80;76.90
20091;DHT22;10205;49.678;6.560;2023-12-20T11:16:11;9.80;76.10
20091;DHT22;10205;49.678;6.560;2023-12-20T11:18:40;9.80;76.10
20091;DHT22;10205;49.678;6.560;2023-12-20T11:21:11;9.80;76.10
20091;DHT22;10205;49.678;6.560;2023-12-20T11:23:42;9.80;75.90
20091;DHT22;10205;49.678;6.560;2023-12-20T11:26:11;9.80;75.90
20091;DHT22;10205;49.678;6.560;2023-12-20T11:28:42;9.90;75.90
20091;DHT22;10205;49.678;6.560;2023-12-20T11:31:09;9.90;75.90
20091;DHT22;10205;49.678;6.560;2023-12-20T11:33:42;9.90;76.00
20091;DHT22;10205;49.678;6.560;2023-12-20T11:36:14;9.90;75.90
20091;DHT22;10205;49.678;6.560;2023-12-20T11:38:53;9.90;76.00
20091;DHT22;10205;49.678;6.560;2023-12-20T11:41:24;9.90;75.90
20091;DHT22;10205;49.678;6.560;2023-12-20T11:43:53;9.90;76.10
20091;DHT22;10205;49.678;6.560;2023-12-20T11:46:20;9.90;76.10
20091;DHT22;10205;49.678;6.560;2023-12-20T11:48:48;10.00;76.20
20091;DHT22;10205;49.678;6.560;2023-12-20T11:51:15;10.00;76.20
20091;DHT22;10205;49.678;6.560;2023-12-20T11:53:42;10.00;76.20
20091;DHT22;10205;49.678;6.560;2023-12-20T11:56:10;10.00;76.10
20091;DHT22;10205;49.678;6.560;2023-12-20T11:58:41;10.00;76.10
20091;DHT22;10205;49.678;6.560;2023-12-20T12:01:08;10.00;76.00
20091;DHT22;10205;49.678;6.560;2023-12-20T12:03:36;10.10;76.10
20091;DHT22;10205;49.678;6.560;2023-12-20T12:06:04;10.10;76.10
20091;DHT22;10205;49.678;6.560;2023-12-20T12:08:31;10.10;76.00
20091;DHT22;10205;49.678;6.560;2023-12-20T12:10:59;10.10;76.00
20091;DHT22;10205;49.678;6.560;2023-12-20T12:13:26;10.10;76.00
20091;DHT22;10205;49.678;6.560;2023-12-20T12:15:55;10.10;75.90
20091;DHT22;10205;49.678;6.560;2023-12-20T12:18:23;10.10;75.80
20091;DHT22;10205;49.678;6.560;2023-12-20T12:20:50;10.20;76.00
20091;DHT22;10205;49.678;6.560;2023-12-20T12:23:27;10.20;76.00
20091;DHT22;10205;49.678;6.560;2023-12-20T12:25:55;10.20;76.00
20091;DHT22;10205;49.678;6.560;2023-12-20T12:28:26;10.20;76.00
20091;DHT22;10205;49.678;6.560;2023-12-20T12:30:59;10.20;75.90
20091;DHT22;10205;49.678;6.560;2023-12-20T12:33:26;10.20;75.80
20091;DHT22;10205;49.678;6.560;2023-12-20T12:35:54;10.30;75.90
20091;DHT22;10205;49.678;6.560;2023-12-20T12:38:21;10.30;75.90
20091;DHT22;10205;49.678;6.560;2023-12-20T12:40:49;10.30;75.90
20091;DHT22;10205;49.678;6.560;2023-12-20T12:43:18;10.30;75.80
20091;DHT22;10205;49.678;6.560;2023-12-20T12:45:45;10.30;75.90
20091;DHT22;10205;49.678;6.560;2023-12-20T12:48:14;10.30;75.80
20091;DHT22;10205;49.678;6.560;2023-12-20T12:50:42;10.30;75.80
20091;DHT22;10205;49.678;6.560;2023-12-20T12:53:09;10.40;75.80
20091;DHT22;10205;49.678;6.560;2023-12-20T12:55:36;10.40;75.70
20091;DHT22;10205;49.678;6.560;2023-12-20T12:58:03;10.40;75.70
20091;DHT22;10205;49.678;6.560;2023-12-20T13:00:31;10.40;75.70
20091;DHT22;10205;49.678;6.560;2023-12-20T13:02:58;10.40;76.50
20091;DHT22;10205;49.678;6.560;2023-12-20T13:05:27;10.40;75.70
20091;DHT22;10205;49.678;6.560;2023-12-20T13:07:54;10.40;75.70
20091;DHT22;10205;49.678;6.560;2023-12-20T13:10:21;10.40;75.70
20091;DHT22;10205;49.678;6.560;2023-12-20T13:12:49;10.50;76.50
20091;DHT22;10205;49.678;6.560;2023-12-20T13:15:18;10.40;75.60
20091;DHT22;10205;49.678;6.560;2023-12-20T13:17:45;10.50;76.50
20091;DHT22;10205;49.678;6.560;2023-12-20T13:20:12;10.50;75.60
20091;DHT22;10205;49.678;6.560;2023-12-20T13:22:41;10.50;75.60
20091;DHT22;10205;49.678;6.560;2023-12-20T13:25:08;10.50;75.50
20091;DHT22;10205;49.678;6.560;2023-12-20T13:27:35;10.50;75.60
20091;DHT22;10205;49.678;6.560;2023-12-20T13:30:03;10.50;75.60
20091;DHT22;10205;49.678;6.560;2023-12-20T13:32:31;10.50;75.60
20091;DHT22;10205;49.678;6.560;2023-12-20T13:34:58;10.50;75.50
20091;DHT22;10205;49.678;6.560;2023-12-20T13:37:25;10.50;75.50
20091;DHT22;10205;49.678;6.560;2023-12-20T13:39:54;10.50;75.60
20091;DHT22;10205;49.678;6.560;2023-12-20T13:42:21;10.60;75.90
20091;DHT22;10205;49.678;6.560;2023-12-20T13:44:49;10.60;75.60
20091;DHT22;10205;49.678;6.560;2023-12-20T13:47:16;10.60;75.50
20091;DHT22;10205;49.678;6.560;2023-12-20T13:49:45;10.60;75.50
20091;DHT22;10205;49.678;6.560;2023-12-20T13:52:12;10.60;75.50
20091;DHT22;10205;49.678;6.560;2023-12-20T13:54:41;10.60;75.50
20091;DHT22;10205;49.678;6.560;2023-12-20T13:57:09;10.60;75.40
20091;DHT22;10205;49.678;6.560;2023-12-20T13:59:37;10.70;75.50
20091;DHT22;10205;49.678;6.560;2023-12-20T14:02:04;10.70;75.50
20091;DHT22;10205;49.678;6.560;2023-12-20T14:04:31;10.70;75.50
20091;DHT22;10205;49.678;6.560;2023-12-20T14:06:59;10.70;75.50
20091;DHT22;10205;49.678;6.560;2023-12-20T14:09:26;10.70;75.50
20091;DHT22;10205;49.678;6.560;2023-12-20T14:11:53;10.70;75.40
20091;DHT22;10205;49.678;6.560;2023-12-20T14:14:22;10.70;75.40
20091;DHT22;10205;49.678;6.560;2023-12-20T14:16:49;10.70;75.30
20091;DHT22;10205;49.678;6.560;2023-12-20T14:19:16;10.70;75.40
20091;DHT22;10205;49.678;6.560;2023-12-20T14:21:45;10.70;75.40
20091;DHT22;10205;49.678;6.560;2023-12-20T14:24:12;10.70;75.40
20091;DHT22;10205;49.678;6.560;2023-12-20T14:26:40;10.70;75.30
20091;DHT22;10205;49.678;6.560;2023-12-20T14:29:07;10.80;75.40
20091;DHT22;10205;49.678;6.560;2023-12-20T14:31:38;10.80;75.40
20091;DHT22;10205;49.678;6.560;2023-12-20T14:34:06;10.80;75.30
20091;DHT22;10205;49.678;6.560;2023-12-20T14:36:34;10.80;75.40
20091;DHT22;10205;49.678;6.560;2023-12-20T14:39:01;10.80;75.40
20091;DHT22;10205;49.678;6.560;2023-12-20T14:41:29;10.80;75.30
20091;DHT22;10205;49.678;6.560;2023-12-20T14:43:58;10.80;75.40
20091;DHT22;10205;49.678;6.560;2023-12-20T14:46:26;10.80;75.40
20091;DHT22;10205;49.678;6.560;2023-12-20T14:48:55;10.80;75.40
20091;DHT22;10205;49.678;6.560;2023-12-20T14:51:22;10.80;75.30
20091;DHT22;10205;49.678;6.560;2023-12-20T14:53:50;10.80;75.40
20091;DHT22;10205;49.678;6.560;2023-12-20T14:56:17;10.80;75.30
20091;DHT22;10205;49.678;6.560;2023-12-20T14:58:46;10.80;75.30
20091;DHT22;10205;49.678;6.560;2023-12-20T15:01:13;10.80;75.30
20091;DHT22;10205;49.678;6.560;2023-12-20T15:03:40;10.80;75.30
20091;DHT22;10205;49.678;6.560;2023-12-20T15:06:09;10.80;75.30
20091;DHT22;10205;49.678;6.560;2023-12-20T15:08:37;10.80;75.30
20091;DHT22;10205;49.678;6.560;2023-12-20T15:11:04;10.80;75.30
20091;DHT22;10205;49.678;6.560;2023-12-20T15:13:31;10.80;75.30
20091;DHT22;10205;49.678;6.560;2023-12-20T15:15:58;10.80;75.30
20091;DHT22;10205;49.678;6.560;2023-12-20T15:18:26;10.80;75.30
20091;DHT22;10205;49.678;6.560;2023-12-20T15:20:53;10.80;75.30
20091;DHT22;10205;49.678;6.560;2023-12-20T15:23:22;10.80;75.30
20091;DHT22;10205;49.678;6.560;2023-12-20T15:25:51;10.80;75.30
20091;DHT22;10205;49.678;6.560;2023-12-20T15:28:18;10.80;75.30
20091;DHT22;10205;49.678;6.560;2023-12-20T15:30:46;10.80;75.40
20091;DHT22;10205;49.678;6.560;2023-12-20T15:33:13;10.80;75.40
20091;DHT22;10205;49.678;6.560;2023-12-20T15:35:40;10.80;75.40
20091;DHT22;10205;49.678;6.560;2023-12-20T15:38:07;10.80;75.40
20091;DHT22;10205;49.678;6.560;2023-12-20T15:40:36;10.80;75.30
20091;DHT22;10205;49.678;6.560;2023-12-20T15:43:03;10.80;75.30